Time;durP1;ratioP1;P1;durP2;ratioP2;P2;SDS_P1;SDS_P2;PMS_P1;PMS_P2;Temp;Humidity;BMP_temperature;BMP_pressure;BME280_temperature;BME280_humidity;BME280_pressure;Samples;Min_cycle;Max_cycle;Signal;HPM_P1;HPM_P2
2023/10/02 00:01:36;;;;;;;;;;;;;;;17.42;73.61;101707.72;4108517;28;19976;-78
2023/10/02 00:03:44;;;;;;;;;;;;;;;17.43;73.89;101706.69;4108461;28;20258;-77
2023/10/02 00:05:50;;;;;;;;;;;;;;;17.43;73.93;101697.66;4107651;28;19976;-77
2023/10/02 00:08:00;;;;;;;;;;;;;;;17.42;73.90;101699.53;4108141;28;20029;-77
2023/10/02 00:10:02;;;;;;;;;;;;;;;17.42;73.38;101698.69;4108293;28;20021;-77
2023/10/02 00:12:11;;;;;;;;;;;;;;;17.39;73.18;101702.66;4108815;28;19984;-77
2023/10/02 00:14:20;;;;;;;;;;;;;;;17.40;73.25;101701.63;4104347;28;20465;-77
2023/10/02 00:16:21;;;;;;;;;;;;;;;17.39;72.81;101702.66;4107433;28;20046;-77
2023/10/02 00:18:23;;;;;;;;;;;;;;;17.39;72.90;101701.84;4107357;28;19930;-78
2023/10/02 00:20:26;;;;;;;;;;;;;;;17.39;73.14;101699.94;4106050;28;20386;-78
2023/10/02 00:22:38;;;;;;;;;;;;;;;17.39;72.93;101704.56;4105071;28;19977;-78
2023/10/02 00:24:43;;;;;;;;;;;;;;;17.38;72.66;101705.59;4091572;28;19930;-77
2023/10/02 00:26:44;;;;;;;;;;;;;;;17.38;72.92;101698.28;4106074;28;19927;-76
2023/10/02 00:28:46;;;;;;;;;;;;;;;17.40;72.72;101698.06;4106729;28;19977;-77
2023/10/02 00:30:49;;;;;;;;;;;;;;;17.38;72.76;101698.28;4106610;28;20359;-77
2023/10/02 00:32:51;;;;;;;;;;;;;;;17.37;72.75;101698.47;4091339;28;20017;-77
2023/10/02 00:34:53;;;;;;;;;;;;;;;17.36;72.88;101697.59;4105769;28;20407;-77
2023/10/02 00:36:55;;;;;;;;;;;;;;;17.33;72.58;101695.25;4080374;29;20426;-77
2023/10/02 00:39:24;;;;;;;;;;;;;;;17.35;73.16;101689.59;4105777;28;20029;-77
2023/10/02 00:41:21;;;;;;;;;;;;;;;17.34;72.78;101688.78;4105070;28;20009;-77
2023/10/02 00:43:35;;;;;;;;;;;;;;;17.36;72.88;101699.50;4106413;28;20050;-77
2023/10/02 00:45:38;;;;;;;;;;;;;;;17.36;72.98;101702.22;4107229;28;19926;-77
2023/10/02 00:47:41;;;;;;;;;;;;;;;17.35;73.40;101697.81;4107174;28;20013;-77
2023/10/02 00:49:44;;;;;;;;;;;;;;;17.36;73.43;101699.50;4105068;28;20050;-78
2023/10/02 00:51:46;;;;;;;;;;;;;;;17.34;73.77;101696.97;4106288;28;20668;-78
2023/10/02 00:53:53;;;;;;;;;;;;;;;17.35;73.89;101700.53;4106240;28;20021;-78
2023/10/02 00:55:54;;;;;;;;;;;;;;;17.34;73.98;101698.84;4107225;28;20027;-78
2023/10/02 00:57:57;;;;;;;;;;;;;;;17.33;73.81;101700.72;4107001;28;19954;-78
2023/10/02 00:59:59;;;;;;;;;;;;;;;17.32;74.08;101693.59;4106366;28;20033;-76
2023/10/02 01:02:05;;;;;;;;;;;;;;;17.33;73.97;101703.47;4091169;28;20033;-77
2023/10/02 01:04:10;;;;;;;;;;;;;;;17.32;73.78;101698.19;4106623;28;20022;-76
2023/10/02 01:06:12;;;;;;;;;;;;;;;17.31;73.88;101700.09;4107052;28;20445;-78
2023/10/02 01:08:23;;;;;;;;;;;;;;;17.31;73.95;101700.09;4090405;28;20021;-77
2023/10/02 01:10:29;;;;;;;;;;;;;;;17.29;73.90;101694.81;4090578;28;20006;-75
2023/10/02 01:12:38;;;;;;;;;;;;;;;17.30;73.93;101695.66;4106319;28;20013;-76
2023/10/02 01:14:50;;;;;;;;;;;;;;;17.32;73.82;101690.00;4107578;28;20391;-78
2023/10/02 01:16:54;;;;;;;;;;;;;;;17.28;74.08;101687.66;4090914;28;20014;-78
2023/10/02 01:18:57;;;;;;;;;;;;;;;17.29;74.04;101685.81;4106556;28;20017;-77
2023/10/02 01:21:00;;;;;;;;;;;;;;;17.27;74.32;101694.19;4107132;28;20029;-78
2023/10/02 01:23:11;;;;;;;;;;;;;;;17.25;74.36;101693.53;4106603;28;20643;-78
2023/10/02 01:25:16;;;;;;;;;;;;;;;17.26;74.57;101694.38;4106586;28;19998;-76
2023/10/02 01:27:22;;;;;;;;;;;;;;;17.25;74.40;101690.78;4089778;28;19931;-77
2023/10/02 01:29:25;;;;;;;;;;;;;;;17.25;74.42;101696.25;4107221;28;20021;-77
2023/10/02 01:31:35;;;;;;;;;;;;;;;17.25;74.46;101698.97;4091042;28;19969;-78
2023/10/02 01:33:37;;;;;;;;;;;;;;;17.26;74.29;101697.94;4106707;28;20352;-77
2023/10/02 01:35:39;;;;;;;;;;;;;;;17.25;74.51;101700.88;4074531;29;19966;-77
2023/10/02 01:37:46;;;;;;;;;;;;;;;17.24;74.51;101708.25;4106106;28;19969;-78
2023/10/02 01:39:49;;;;;;;;;;;;;;;17.21;74.71;101703.19;4105518;28;20021;-77
2023/10/02 01:41:53;;;;;;;;;;;;;;;17.22;74.80;101709.47;4105463;28;20025;-77
2023/10/02 01:43:55;;;;;;;;;;;;;;;17.21;74.79;101707.75;4101156;28;20025;-77
2023/10/02 01:45:57;;;;;;;;;;;;;;;17.21;74.74;101703.19;4105562;28;20496;-77
2023/10/02 01:47:59;;;;;;;;;;;;;;;17.22;74.67;101693.91;4105714;28;19933;-74
2023/10/02 01:50:01;;;;;;;;;;;;;;;17.23;74.74;101694.78;4104648;28;19926;-77
2023/10/02 01:52:08;;;;;;;;;;;;;;;17.21;74.66;101697.72;4106078;28;20017;-77
2023/10/02 01:54:16;;;;;;;;;;;;;;;17.21;74.76;101705.91;4104722;28;20025;-76
2023/10/02 01:56:18;;;;;;;;;;;;;;;17.20;74.77;101701.47;4104843;28;20356;-78
2023/10/02 01:58:23;;;;;;;;;;;;;;;17.20;74.76;101703.38;4105225;28;20033;-76
2023/10/02 02:00:25;;;;;;;;;;;;;;;17.20;75.16;101711.56;4089865;28;20017;-77
2023/10/02 02:02:27;;;;;;;;;;;;;;;17.18;74.50;101705.44;4106428;28;20038;-77
2023/10/02 02:04:32;;;;;;;;;;;;;;;17.19;74.27;101707.97;4106003;28;20024;-77
2023/10/02 02:06:37;;;;;;;;;;;;;;;17.18;74.57;101710.88;4105595;28;20033;-77
2023/10/02 02:08:58;;;;;;;;;;;;;;;17.18;74.58;101705.44;4103873;28;20404;-77
2023/10/02 02:11:14;;;;;;;;;;;;;;;17.15;74.67;101701.22;4105012;28;20001;-77
2023/10/02 02:13:17;;;;;;;;;;;;;;;17.15;74.77;101697.63;4104314;28;20009;-78
2023/10/02 02:15:21;;;;;;;;;;;;;;;17.15;74.60;101686.72;4105333;28;19969;-76
2023/10/02 02:17:24;;;;;;;;;;;;;;;17.14;74.45;101696.81;4119019;28;20386;-77
2023/10/02 02:19:28;;;;;;;;;;;;;;;17.15;74.81;101692.19;4119988;28;20017;-78
2023/10/02 02:21:30;;;;;;;;;;;;;;;17.15;74.79;101692.19;4105478;28;20017;-77
2023/10/02 02:23:32;;;;;;;;;;;;;;;17.13;74.46;101692.38;4105906;28;20025;-77
2023/10/02 02:25:34;;;;;;;;;;;;;;;17.15;74.57;101686.72;4104278;28;20020;-77
2023/10/02 02:27:36;;;;;;;;;;;;;;;17.16;74.92;101694.72;4105065;28;20021;-77
2023/10/02 02:29:38;;;;;;;;;;;;;;;17.14;74.76;101677.69;4105937;28;19933;-77
2023/10/02 02:31:42;;;;;;;;;;;;;;;17.14;74.62;101690.50;4105615;28;20022;-77
2023/10/02 02:33:44;;;;;;;;;;;;;;;17.14;75.39;101683.16;4104780;28;20013;-76
2023/10/02 02:35:46;;;;;;;;;;;;;;;17.14;75.60;101690.50;4105433;28;20028;-76
2023/10/02 02:37:50;;;;;;;;;;;;;;;17.13;75.95;101697.84;4104323;28;19958;-76
2023/10/02 02:39:52;;;;;;;;;;;;;;;17.11;75.63;101698.06;4106217;28;20565;-77
2023/10/02 02:44:29;;;;;;;;;;;;;;;17.09;75.95;101691.09;4106401;28;20388;-77
2023/10/02 02:46:32;;;;;;;;;;;;;;;17.09;75.71;101683.75;4107175;28;20041;-78
2023/10/02 02:48:43;;;;;;;;;;;;;;;17.07;75.95;101680.38;4106122;28;20133;-75
2023/10/02 02:50:47;;;;;;;;;;;;;;;17.09;75.75;101678.28;4106505;28;20383;-77
2023/10/02 02:53:16;;;;;;;;;;;;;;;17.07;75.37;101685.00;4106595;28;20020;-77
2023/10/02 02:55:13;;;;;;;;;;;;;;;17.07;75.33;101690.47;4106293;28;19964;-78
2023/10/02 02:57:15;;;;;;;;;;;;;;;17.05;75.74;101687.94;4106694;28;20021;-77
2023/10/02 02:59:17;;;;;;;;;;;;;;;17.05;75.35;101676.16;4107516;28;20374;-76
2023/10/02 03:01:21;;;;;;;;;;;;;;;17.06;75.07;101686.03;4108924;28;20033;-78
2023/10/02 03:03:34;;;;;;;;;;;;;;;17.05;75.10;101681.59;4093527;28;20411;-77
2023/10/02 03:05:40;;;;;;;;;;;;;;;17.05;74.82;101687.06;4109116;28;20033;-78
2023/10/02 03:07:44;;;;;;;;;;;;;;;17.05;74.88;101684.34;4108373;28;20029;-78
2023/10/02 03:09:45;;;;;;;;;;;;;;;17.06;75.52;101677.84;4106095;28;20444;-78
2023/10/02 03:11:47;;;;;;;;;;;;;;;17.05;75.59;101685.19;4107380;28;19931;-75
2023/10/02 03:13:49;;;;;;;;;;;;;;;17.05;75.64;101687.06;4107513;28;20007;-77
2023/10/02 03:15:50;;;;;;;;;;;;;;;17.05;75.55;101684.34;4108938;28;20029;-78
2023/10/02 03:17:52;;;;;;;;;;;;;;;17.04;75.98;101680.78;4109847;28;19986;-77
2023/10/02 03:19:53;;;;;;;;;;;;;;;17.03;75.99;101681.81;4108201;28;20061;-78
2023/10/02 03:22:01;;;;;;;;;;;;;;;17.02;75.98;101685.59;4109647;28;19930;-76
2023/10/02 03:24:04;;;;;;;;;;;;;;;17.01;76.09;101685.78;4092617;28;19976;-77
2023/10/02 03:26:07;;;;;;;;;;;;;;;17.00;76.11;101686.81;4109476;28;20025;-78
2023/10/02 03:28:27;;;;;;;;;;;;;;;16.99;76.24;101679.66;4109063;28;20472;-74
2023/10/02 03:30:39;;;;;;;;;;;;;;;16.99;76.06;101683.25;4108761;28;20014;-78
2023/10/02 03:32:45;;;;;;;;;;;;;;;16.96;76.18;101682.78;4109989;28;20304;-78
2023/10/02 03:35:02;;;;;;;;;;;;;;;16.94;76.26;101674.78;4108623;28;20024;-78
2023/10/02 03:37:10;;;;;;;;;;;;;;;16.93;76.11;101679.41;4109347;28;20016;-77
2023/10/02 03:39:23;;;;;;;;;;;;;;;16.91;75.99;101678.78;4109620;28;20016;-76
2023/10/02 03:41:44;;;;;;;;;;;;;;;16.91;75.58;101670.59;4108873;28;20365;-78
2023/10/02 03:43:46;;;;;;;;;;;;;;;16.91;75.54;101669.72;4106246;28;19958;-76
2023/10/02 03:45:51;;;;;;;;;;;;;;;16.90;75.32;101666.16;4109000;28;20496;-77
2023/10/02 03:48:02;;;;;;;;;;;;;;;16.89;75.54;101669.09;4107968;28;20029;-77
2023/10/02 03:50:11;;;;;;;;;;;;;;;16.87;75.48;101673.91;4108065;28;20476;-77
2023/10/02 03:52:17;;;;;;;;;;;;;;;16.85;75.58;101670.47;4108607;28;20017;-78
2023/10/02 03:54:20;;;;;;;;;;;;;;;16.83;75.57;101669.84;4108308;28;20002;-78
2023/10/02 03:56:36;;;;;;;;;;;;;;;16.80;75.61;101662.03;4108703;28;20022;-77
2023/10/02 03:58:39;;;;;;;;;;;;;;;16.75;75.59;101663.50;4108573;28;20021;-77
2023/10/02 04:00:44;;;;;;;;;;;;;;;16.75;75.44;101662.63;4107987;28;20022;-77
2023/10/02 04:02:47;;;;;;;;;;;;;;;16.73;75.13;101662.00;4108982;28;19958;-78
2023/10/02 04:04:49;;;;;;;;;;;;;;;16.69;75.18;101649.78;4091741;28;19981;-77
2023/10/02 04:06:54;;;;;;;;;;;;;;;16.68;75.17;101659.00;4108217;28;19990;-78
2023/10/02 04:09:09;;;;;;;;;;;;;;;16.63;75.54;101656.00;4106504;28;20038;-78
2023/10/02 04:11:12;;;;;;;;;;;;;;;16.62;75.48;101644.25;4106563;28;20010;-77
2023/10/02 04:13:14;;;;;;;;;;;;;;;16.59;75.47;101641.94;4108364;28;20021;-77
2023/10/02 04:15:16;;;;;;;;;;;;;;;16.57;75.49;101644.00;4108030;28;19934;-78
2023/10/02 04:17:21;;;;;;;;;;;;;;;16.57;75.38;101642.13;4108890;28;20024;-77
2023/10/02 04:19:23;;;;;;;;;;;;;;;16.55;75.32;101638.75;4107483;28;20009;-77
2023/10/02 04:21:25;;;;;;;;;;;;;;;16.51;75.25;101634.72;4107997;28;20371;-78
2023/10/02 04:23:27;;;;;;;;;;;;;;;16.50;75.32;101641.19;4108230;28;20028;-78
2023/10/02 04:25:35;;;;;;;;;;;;;;;16.49;75.14;101635.94;4108301;28;20028;-75
2023/10/02 04:28:00;;;;;;;;;;;;;;;16.48;75.36;101637.84;4106207;28;20009;-78
2023/10/02 04:30:20;;;;;;;;;;;;;;;16.44;75.26;101642.00;4107820;28;20057;-76
2023/10/02 04:32:24;;;;;;;;;;;;;;;16.43;75.32;101637.56;4107848;28;19985;-76
2023/10/02 04:34:29;;;;;;;;;;;;;;;16.40;75.48;101644.25;4106614;28;20088;-78
2023/10/02 04:36:34;;;;;;;;;;;;;;;16.35;75.42;101641.28;4106697;28;19933;-78
2023/10/02 04:38:49;;;;;;;;;;;;;;;16.34;75.81;101639.56;4105262;28;20484;-76
2023/10/02 04:40:56;;;;;;;;;;;;;;;16.33;75.80;101643.34;4107682;28;20357;-77
2023/10/02 04:42:57;;;;;;;;;;;;;;;16.32;75.75;101640.81;4106856;28;20371;-77
2023/10/02 04:45:20;;;;;;;;;;;;;;;16.29;75.90;101643.94;4106093;28;20464;-75
2023/10/02 04:47:20;;;;;;;;;;;;;;;16.24;76.23;101644.50;4106205;28;20637;-77
2023/10/02 04:49:22;;;;;;;;;;;;;;;16.20;76.36;101641.31;4106615;28;20021;-76
2023/10/02 04:51:28;;;;;;;;;;;;;;;16.16;76.44;101630.97;4102989;28;20085;-76
2023/10/02 04:53:34;;;;;;;;;;;;;;;16.11;76.79;101631.59;4104565;28;20025;-78
2023/10/02 04:55:41;;;;;;;;;;;;;;;16.11;76.91;101630.72;4105210;28;20033;-77
2023/10/02 04:57:45;;;;;;;;;;;;;;;16.10;76.91;101638.06;4106402;28;19930;-77
2023/10/02 04:59:54;;;;;;;;;;;;;;;16.08;77.13;101628.38;4104988;28;20021;-78
2023/10/02 05:02:17;;;;;;;;;;;;;;;16.04;77.01;101639.66;4105565;28;20430;-76
2023/10/02 05:04:20;;;;;;;;;;;;;;;16.02;77.40;101644.47;4105276;28;19973;-77
2023/10/02 05:09:19;;;;;;;;;;;;;;;15.96;77.38;101639.78;4105281;28;20428;-77
2023/10/02 05:11:06;;;;;;;;;;;;;;;15.95;77.72;101653.59;4105106;28;19976;-77
2023/10/02 05:13:09;;;;;;;;;;;;;;;15.93;77.91;101650.22;4104574;28;19962;-78
2023/10/02 05:15:20;;;;;;;;;;;;;;;15.90;77.89;101643.25;4105190;28;20029;-77
2023/10/02 05:17:41;;;;;;;;;;;;;;;15.90;78.04;101642.44;4105338;28;20021;-77
2023/10/02 05:20:00;;;;;;;;;;;;;;;15.85;78.47;101643.84;4104645;28;20413;-77
2023/10/02 05:22:04;;;;;;;;;;;;;;;15.84;78.94;101653.03;4103807;28;19953;-77
2023/10/02 05:24:06;;;;;;;;;;;;;;;15.83;78.97;101655.94;4106381;28;19966;-78
2023/10/02 05:26:29;;;;;;;;;;;;;;;15.80;79.02;101656.34;4107492;28;19989;-77
2023/10/02 05:28:42;;;;;;;;;;;;;;;15.80;78.99;101653.63;4102961;28;19934;-76
2023/10/02 05:30:44;;;;;;;;;;;;;;;15.77;78.92;101652.09;4105040;28;20399;-76
2023/10/02 05:32:46;;;;;;;;;;;;;;;15.78;78.83;101653.81;4103641;28;20368;-76
2023/10/02 05:34:58;;;;;;;;;;;;;;;15.79;78.67;101654.66;4103721;28;20452;-75
2023/10/02 05:37:11;;;;;;;;;;;;;;;15.78;78.94;101664.72;4104772;28;20018;-75
2023/10/02 05:41:44;;;;;;;;;;;;;;;15.77;78.38;101660.28;4099147;28;20444;-76
2023/10/02 05:43:55;;;;;;;;;;;;;;;15.76;78.22;101661.28;4103550;28;20480;-75
2023/10/02 05:46:06;;;;;;;;;;;;;;;15.76;78.27;101657.72;4103453;28;20522;-75
2023/10/02 05:48:08;;;;;;;;;;;;;;;15.76;78.80;101655.00;4104543;28;19974;-75
2023/10/02 05:50:11;;;;;;;;;;;;;;;15.78;78.34;101663.84;4103489;28;20021;-75
2023/10/02 05:52:14;;;;;;;;;;;;;;;15.82;77.90;101668.72;4103442;28;20016;-76
2023/10/02 05:54:19;;;;;;;;;;;;;;;15.84;77.48;101669.38;4102533;28;20043;-76
2023/10/02 05:56:21;;;;;;;;;;;;;;;15.82;77.35;101665.16;4104662;28;20024;-77
2023/10/02 05:58:27;;;;;;;;;;;;;;;15.79;77.24;101669.09;4103012;28;20077;-76
2023/10/02 06:00:35;;;;;;;;;;;;;;;15.79;77.28;101665.53;4103745;28;20850;-76
2023/10/02 06:02:56;;;;;;;;;;;;;;;15.81;77.04;101669.75;4103138;28;20381;-76
2023/10/02 06:05:07;;;;;;;;;;;;;;;15.80;76.96;101665.34;4088689;28;20030;-76
2023/10/02 06:07:09;;;;;;;;;;;;;;;15.83;76.92;101672.28;4105329;28;20041;-75
2023/10/02 06:09:14;;;;;;;;;;;;;;;15.85;76.93;101673.78;4088415;28;20413;-75
2023/10/02 06:11:31;;;;;;;;;;;;;;;15.87;76.69;101684.50;4104929;28;20008;-75
2023/10/02 06:13:37;;;;;;;;;;;;;;;15.87;76.53;101673.59;4104523;28;20077;-75
2023/10/02 06:15:47;;;;;;;;;;;;;;;15.87;76.32;101673.59;4104470;28;20029;-75
2023/10/02 06:17:49;;;;;;;;;;;;;;;15.89;76.49;101679.69;4104881;28;20445;-75
2023/10/02 06:19:53;;;;;;;;;;;;;;;15.90;76.44;101677.84;4104673;28;20467;-75
2023/10/02 06:22:04;;;;;;;;;;;;;;;15.90;76.56;101692.28;4104644;28;20009;-74
2023/10/02 06:24:09;;;;;;;;;;;;;;;15.89;76.93;101685.16;4104378;28;19937;-77
2023/10/02 06:26:11;;;;;;;;;;;;;;;15.90;77.00;101689.56;4102553;28;20053;-77
2023/10/02 06:28:23;;;;;;;;;;;;;;;15.93;76.98;101688.34;4104711;28;20492;-77
2023/10/02 06:30:25;;;;;;;;;;;;;;;15.94;76.67;101682.72;4103569;28;20021;-77
2023/10/02 06:32:30;;;;;;;;;;;;;;;15.95;76.70;101684.38;4105185;28;20034;-77
2023/10/02 06:34:37;;;;;;;;;;;;;;;15.95;76.74;101686.28;4108255;28;20013;-74
2023/10/02 06:36:48;;;;;;;;;;;;;;;15.97;76.91;101684.19;4107236;28;19930;-75
2023/10/02 06:38:54;;;;;;;;;;;;;;;15.99;76.86;101685.72;4107859;28;20357;-73
2023/10/02 06:40:56;;;;;;;;;;;;;;;16.00;76.66;101690.13;4107697;28;20029;-73
2023/10/02 06:43:00;;;;;;;;;;;;;;;16.02;76.77;101688.06;4108149;28;20029;-73
2023/10/02 06:45:02;;;;;;;;;;;;;;;16.04;76.70;101696.88;4108198;28;20817;-73
2023/10/02 06:47:11;;;;;;;;;;;;;;;16.07;76.75;101692.09;4108353;28;20025;-76
2023/10/02 06:49:15;;;;;;;;;;;;;;;16.09;76.46;101682.69;4106935;28;20049;-76
2023/10/02 06:51:17;;;;;;;;;;;;;;;16.11;76.70;101696.97;4090084;28;20018;-75
2023/10/02 06:53:22;;;;;;;;;;;;;;;16.11;76.73;101696.97;4105909;28;20024;-75
2023/10/02 06:55:26;;;;;;;;;;;;;;;16.16;76.48;101693.66;4106679;28;20030;-73
2023/10/02 06:57:28;;;;;;;;;;;;;;;16.17;76.40;101688.00;4107595;28;20029;-77
2023/10/02 06:59:29;;;;;;;;;;;;;;;16.19;76.14;101683.25;4107417;28;20025;-75
2023/10/02 07:01:32;;;;;;;;;;;;;;;16.21;76.16;101685.78;4105557;28;19990;-76
2023/10/02 07:03:39;;;;;;;;;;;;;;;16.23;76.52;101675.53;4106775;28;20020;-76
2023/10/02 07:05:42;;;;;;;;;;;;;;;16.27;76.68;101681.41;4107442;28;20361;-75
2023/10/02 07:07:58;;;;;;;;;;;;;;;16.29;76.36;101680.19;4107749;28;20013;-75
2023/10/02 07:10:07;;;;;;;;;;;;;;;16.33;76.67;101689.69;4106807;28;20029;-75
2023/10/02 07:12:14;;;;;;;;;;;;;;;16.36;77.02;101683.00;4106907;28;20033;-75
2023/10/02 07:14:15;;;;;;;;;;;;;;;16.40;76.97;101682.41;4107498;28;20025;-74
2023/10/02 07:16:17;;;;;;;;;;;;;;;16.43;76.33;101688.53;4107166;28;20452;-75
2023/10/02 07:18:20;;;;;;;;;;;;;;;16.46;76.46;101679.97;4107079;28;20498;-75
2023/10/02 07:20:23;;;;;;;;;;;;;;;16.51;76.55;101685.69;4107406;28;20367;-74
2023/10/02 07:22:26;;;;;;;;;;;;;;;16.53;76.32;101678.97;4107175;28;20013;-74
2023/10/02 07:24:28;;;;;;;;;;;;;;;16.57;75.88;101683.03;4106157;28;20013;-73
2023/10/02 07:28:51;;;;;;;;;;;;;;;16.64;75.57;101694.00;4106262;28;20371;-74
2023/10/02 07:30:53;;;;;;;;;;;;;;;16.69;75.50;101687.97;4106572;28;20026;-73
2023/10/02 07:33:02;;;;;;;;;;;;;;;16.71;75.38;101688.63;4105902;28;20048;-71
2023/10/02 07:35:21;;;;;;;;;;;;;;;16.75;75.03;101692.63;4106954;28;20033;-71
2023/10/02 07:37:24;;;;;;;;;;;;;;;16.79;74.87;101693.94;4106367;28;20394;-76
2023/10/02 07:39:35;;;;;;;;;;;;;;;16.83;74.62;101686.22;4106541;28;20021;-73
2023/10/02 07:41:37;;;;;;;;;;;;;;;16.87;74.33;101687.56;4106445;28;20301;-74
2023/10/02 07:43:42;;;;;;;;;;;;;;;16.90;74.29;101685.25;4106468;28;20017;-73
2023/10/02 07:45:44;;;;;;;;;;;;;;;16.95;73.98;101678.38;4106747;28;19927;-72
2023/10/02 07:50:03;;;;;;;;;;;;;;;17.02;73.41;101685.59;4100908;28;20029;-76
2023/10/02 07:52:06;;;;;;;;;;;;;;;17.06;73.48;101669.66;4106871;28;20029;-73
2023/10/02 07:54:08;;;;;;;;;;;;;;;17.09;73.56;101669.25;4105737;28;20026;-73
2023/10/02 07:56:16;;;;;;;;;;;;;;;17.13;73.18;101665.06;4105908;28;20032;-73
2023/10/02 07:58:19;;;;;;;;;;;;;;;17.17;72.81;101665.53;4107198;28;20013;-73
2023/10/02 08:00:33;;;;;;;;;;;;;;;17.21;73.33;101670.41;4105725;28;20033;-73
2023/10/02 08:02:35;;;;;;;;;;;;;;;17.25;72.99;101673.59;4105536;28;20017;-72
2023/10/02 08:04:47;;;;;;;;;;;;;;;17.28;73.01;101670.44;4107606;28;20022;-72
2023/10/02 08:06:49;;;;;;;;;;;;;;;17.32;73.01;101669.03;4106279;28;20017;-75
2023/10/02 08:09:35;;;;;;;;;;;;;;;17.36;73.13;101664.00;4091405;28;19938;-73
2023/10/02 08:11:18;;;;;;;;;;;;;;;17.41;73.15;101664.25;4105414;28;20029;-72
2023/10/02 08:13:32;;;;;;;;;;;;;;;17.45;72.88;101668.25;4105116;28;20377;-72
2023/10/02 08:15:34;;;;;;;;;;;;;;;17.50;73.16;101671.22;4107042;28;20017;-71
2023/10/02 08:19:56;;;;;;;;;;;;;;;17.57;73.00;101661.19;4104809;28;20025;-71
2023/10/02 08:22:05;;;;;;;;;;;;;;;17.63;73.16;101665.88;4105228;28;20417;-74
2023/10/02 08:24:10;;;;;;;;;;;;;;;17.70;73.82;101670.53;4105972;28;20017;-72
2023/10/02 08:26:16;;;;;;;;;;;;;;;17.76;73.87;101666.97;4105804;28;20511;-73
2023/10/02 08:28:37;;;;;;;;;;;;;;;17.83;73.63;101667.84;4107083;28;19926;-73
2023/10/02 08:30:40;;;;;;;;;;;;;;;17.91;73.28;101666.88;4102535;28;19981;-72
2023/10/02 08:32:44;;;;;;;;;;;;;;;17.98;72.98;101665.00;4122285;28;20025;-74
2023/10/02 08:34:48;;;;;;;;;;;;;;;18.03;72.89;101670.69;4106815;28;19958;-72
2023/10/02 08:37:05;;;;;;;;;;;;;;;18.10;72.80;101668.00;4104002;28;19933;-73
2023/10/02 08:39:10;;;;;;;;;;;;;;;18.18;72.82;101665.94;4106655;28;19993;-73
2023/10/02 08:41:19;;;;;;;;;;;;;;;18.26;72.84;101661.31;4107197;28;20017;-73
2023/10/02 08:43:24;;;;;;;;;;;;;;;18.33;72.60;101668.47;4105962;28;20216;-72
2023/10/02 08:45:27;;;;;;;;;;;;;;;18.40;72.65;101662.19;4107344;28;20021;-73
2023/10/02 08:47:32;;;;;;;;;;;;;;;18.48;73.00;101656.53;4106396;28;20013;-70
2023/10/02 08:49:37;;;;;;;;;;;;;;;18.54;72.53;101658.44;4105992;28;20054;-71
2023/10/02 08:51:48;;;;;;;;;;;;;;;18.61;71.52;101656.56;4103235;28;20022;-75
2023/10/02 08:53:50;;;;;;;;;;;;;;;18.68;71.25;101656.56;4088778;28;19927;-72
2023/10/02 08:56:21;;;;;;;;;;;;;;;18.72;71.05;101658.66;4106270;28;20371;-72
2023/10/02 08:58:27;;;;;;;;;;;;;;;18.81;70.88;101659.31;4104916;28;20485;-74
2023/10/02 09:00:30;;;;;;;;;;;;;;;18.87;70.65;101663.13;4104428;28;20575;-72
2023/10/02 09:02:40;;;;;;;;;;;;;;;18.93;70.39;101659.56;4105498;28;20013;-72
2023/10/02 09:05:09;;;;;;;;;;;;;;;18.99;70.43;101658.72;4105611;28;20038;-71
2023/10/02 09:07:22;;;;;;;;;;;;;;;19.07;70.01;101657.66;4105878;28;20099;-72
2023/10/02 09:09:36;;;;;;;;;;;;;;;19.12;69.69;101652.38;4105617;28;20022;-73
2023/10/02 09:11:45;;;;;;;;;;;;;;;19.18;69.57;101646.06;4103993;28;20017;-73
2023/10/02 09:14:12;;;;;;;;;;;;;;;19.26;69.86;101654.09;4104098;28;19949;-76
2023/10/02 09:16:18;;;;;;;;;;;;;;;19.33;69.78;101648.59;4104511;28;20034;-72
2023/10/02 09:19:07;;;;;;;;;;;;;;;19.39;69.20;101652.38;4105157;28;20408;-75
2023/10/02 09:21:13;;;;;;;;;;;;;;;19.47;68.92;101652.16;4104489;28;20021;-72
2023/10/02 09:26:16;;;;;;;;;;;;;;;19.60;68.86;101640.31;4105581;28;20004;-70
2023/10/02 09:28:19;;;;;;;;;;;;;;;19.66;68.51;101642.19;4104230;28;19964;-70
2023/10/02 09:30:23;;;;;;;;;;;;;;;19.69;67.95;101632.69;4104308;28;19927;-73
2023/10/02 09:32:27;;;;;;;;;;;;;;;19.77;68.03;101632.47;4102906;28;20520;-74
2023/10/02 09:34:32;;;;;;;;;;;;;;;19.83;68.07;101633.50;4104947;28;20584;-73
2023/10/02 09:36:36;;;;;;;;;;;;;;;19.89;67.86;101638.13;4105285;28;19938;-72
2023/10/02 09:38:42;;;;;;;;;;;;;;;19.93;67.54;101639.38;4105143;28;20020;-73
2023/10/02 09:41:14;;;;;;;;;;;;;;;19.99;67.63;101627.53;4105625;28;20025;-73
2023/10/02 09:43:16;;;;;;;;;;;;;;;20.05;66.88;101628.56;4105408;28;20796;-77
2023/10/02 09:45:30;;;;;;;;;;;;;;;20.08;66.98;101628.13;4106305;28;19981;-79
2023/10/02 09:47:36;;;;;;;;;;;;;;;20.14;66.45;101619.88;4106391;28;19969;-75
2023/10/02 09:49:40;;;;;;;;;;;;;;;20.16;66.55;101616.91;4104408;28;20524;-75
2023/10/02 09:51:45;;;;;;;;;;;;;;;20.20;66.67;101620.88;4104433;28;19930;-76
2023/10/02 09:54:05;;;;;;;;;;;;;;;20.25;66.48;101618.34;4106238;28;20378;-75
2023/10/02 09:56:10;;;;;;;;;;;;;;;20.30;66.24;101609.44;4105848;28;20020;-74
2023/10/02 09:58:26;;;;;;;;;;;;;;;20.30;65.90;101603.97;4105644;28;20012;-73
2023/10/02 10:00:40;;;;;;;;;;;;;;;20.31;66.09;101605.63;4102735;28;20388;-75
2023/10/02 10:02:49;;;;;;;;;;;;;;;20.31;66.33;101600.13;4103520;28;21453;-74
2023/10/02 10:05:22;;;;;;;;;;;;;;;20.33;66.29;101611.75;4103846;28;20025;-74
2023/10/02 10:07:37;;;;;;;;;;;;;;;20.34;66.13;101603.28;4105640;28;20017;-74
2023/10/02 10:09:51;;;;;;;;;;;;;;;20.34;66.26;101606.03;4074879;29;20008;-74
2023/10/02 10:14:40;;;;;;;;;;;;;;;20.37;66.37;101601.16;4122487;28;20701;-75
2023/10/02 10:16:41;;;;;;;;;;;;;;;20.34;66.44;101606.03;4075249;29;20454;-75
2023/10/02 10:19:26;;;;;;;;;;;;;;;20.34;66.53;101608.78;4091845;28;20456;-75
2023/10/02 10:21:56;;;;;;;;;;;;;;;20.38;67.00;101605.59;4106576;28;19934;-75
2023/10/02 10:24:14;;;;;;;;;;;;;;;20.39;66.80;101605.38;4099548;28;19949;-74
2023/10/02 10:26:33;;;;;;;;;;;;;;;20.42;66.30;101595.84;4109100;28;20021;-74
2023/10/02 10:28:50;;;;;;;;;;;;;;;20.45;66.75;101598.13;4108782;28;19962;-74
2023/10/02 10:30:56;;;;;;;;;;;;;;;20.46;66.81;101594.34;4108014;28;20021;-74
2023/10/02 10:33:15;;;;;;;;;;;;;;;20.47;66.99;101596.88;4108674;28;20025;-74
2023/10/02 10:35:30;;;;;;;;;;;;;;;20.50;66.75;101593.69;4090114;28;20002;-75
2023/10/02 10:37:46;;;;;;;;;;;;;;;20.55;67.03;101589.41;4108587;28;20065;-75
2023/10/02 10:39:59;;;;;;;;;;;;;;;20.58;66.43;101588.97;4107844;28;20009;-74
2023/10/02 10:42:01;;;;;;;;;;;;;;;20.60;66.93;101584.13;4107957;28;20049;-73
2023/10/02 10:44:06;;;;;;;;;;;;;;;20.62;66.94;101584.72;4107426;28;20025;-74
2023/10/02 10:46:12;;;;;;;;;;;;;;;20.63;66.95;101584.50;4107887;28;20026;-76
2023/10/02 10:48:22;;;;;;;;;;;;;;;20.65;66.57;101584.31;4108063;28;20021;-75
2023/10/02 10:50:29;;;;;;;;;;;;;;;20.68;66.91;101583.88;4107483;28;20022;-74
2023/10/02 10:52:35;;;;;;;;;;;;;;;20.72;66.94;101578.75;4107356;28;20017;-75
2023/10/02 10:54:41;;;;;;;;;;;;;;;20.75;66.92;101567.31;4106205;28;20017;-73
2023/10/02 10:56:44;;;;;;;;;;;;;;;20.77;66.18;101555.06;4107067;28;20033;-71
2023/10/02 10:58:50;;;;;;;;;;;;;;;20.80;66.37;101565.59;4107344;28;20020;-73
2023/10/02 11:00:51;;;;;;;;;;;;;;;20.82;66.30;101554.38;4106877;28;20020;-73
2023/10/02 11:02:57;;;;;;;;;;;;;;;20.85;66.15;101557.50;4107551;28;20033;-74
2023/10/02 11:05:03;;;;;;;;;;;;;;;20.87;66.02;101546.31;4105702;28;19930;-73
2023/10/02 11:07:19;;;;;;;;;;;;;;;20.87;66.02;101552.63;4105920;28;19997;-72
2023/10/02 11:09:24;;;;;;;;;;;;;;;20.94;65.50;101549.84;4107015;28;20005;-73
2023/10/02 11:11:30;;;;;;;;;;;;;;;20.95;65.16;101556.16;4106621;28;20017;-72
2023/10/02 11:13:50;;;;;;;;;;;;;;;20.94;65.15;101548.97;4106752;28;20021;-74